Greenfield, Missouri
Current Conditions -  °F | °C
As of 4:52 PM on Saturday 22 Nov 2014 (Local Time) from KSGF Reporting Station
Overcast Overcast  
Wind Chill: 12°   Ceiling: 700
Heat Index: 12°   Visibility: 10mi
Dew Point: 11°   Wind: 15mph
Humidity: 90%   Direction: 160°SSE
Pressure: 29.88"   Gusts: NA
Location:  37.42°N, 93.84°W
Report Text: KSGF 222252Z 16013KT 10SM BKN007 OVC011 12/11 A2988 RMK AO2 SLP119 T01220106
Loading
Personal Weather Stations






























Interactive Weather Map New forecast layout! Learn more

10-Day Weather Forecast

Advertisements
Track Severe Weather on mobile